PWSweather.com
Personal Weather Stations
Station Observations
CW4438
Little Flock, AR 72756

Little Flock, AR 72756

Lat: 36.39, Lon: -94.14

Elevation: 1278

Station Type: Davis/Vantage Pro

Latest ConditionsUpdated 10:20:04 PM CDT Friday, Jul 3, 2015
Currently Today's Max Today's Min Today's Average
Temperature 69.3°F20.7°C 84.7°F29.3°C 66.1°F18.9°C 72.9°F22.7°C
Dew Point 67.8°F19.9°C 75.2°F24.0°C 64.9°F18.3°C 69.6°F20.9°C
Winds Calm Calm 3.0 mph NNE4.8 kmh NNE - 0.2 mph 0.3 kmh
Wind Gusts 3.0 mph4.8 kmh 3.0 mph4.8 kmh - -
Humidity 95% 97% 69% 90%
Pressure 29.85 in1010.8 mb 29.86 in1011.2 mb 29.78 in1008.5 mb -
Hour Temp Dew Point Humidity Winds Wind Gusts Pressure Precip Precip Rate Daily Precip Total
10:20 PM 69.3°F20.7°C 67.8°F19.9°C 95% Calm Calm 3.0 mph4.8 kmh 29.85 in1010.8 mb 0.00 in0.0 mm 0.00 in0.0 mm 0.30 in7.6 mm
09:50 PM 70.2°F21.2°C 69.0°F20.6°C 96% Calm Calm 3.0 mph4.8 kmh 29.84 in1010.5 mb 0.00 in0.0 mm 0.00 in0.0 mm 0.30 in7.6 mm
09:20 PM 70.8°F21.6°C 69.3°F20.7°C 95% Calm Calm 3.0 mph4.8 kmh 29.84 in1010.5 mb 0.00 in0.0 mm 0.00 in0.0 mm 0.30 in7.6 mm
08:50 PM 71.7°F22.1°C 69.9°F21.1°C 94% Calm Calm 3.0 mph4.8 kmh 29.82 in1009.8 mb 0.00 in0.0 mm 0.00 in0.0 mm 0.30 in7.6 mm
08:20 PM 73.0°F22.8°C 70.9°F21.6°C 93% Calm Calm 3.0 mph4.8 kmh 29.82 in1009.8 mb 0.00 in0.0 mm 0.00 in0.0 mm 0.30 in7.6 mm
07:50 PM 74.5°F23.6°C 72.0°F22.2°C 92% Calm Calm 3.0 mph4.8 kmh 29.82 in1009.8 mb 0.00 in0.0 mm 0.00 in0.0 mm 0.30 in7.6 mm
07:20 PM 75.2°F24.0°C 72.4°F22.4°C 91% Calm Calm 3.0 mph4.8 kmh 29.81 in1009.5 mb 0.00 in0.0 mm 0.00 in0.0 mm 0.30 in7.6 mm
06:50 PM 75.4°F24.1°C 71.9°F22.2°C 89% Calm Calm 3.0 mph4.8 kmh 29.82 in1009.8 mb 0.00 in0.0 mm 0.00 in0.0 mm 0.30 in7.6 mm
06:20 PM 75.2°F24.0°C 72.4°F22.4°C 91% Calm Calm 3.0 mph4.8 kmh 29.82 in1009.8 mb 0.00 in0.0 mm 0.00 in0.0 mm 0.30 in7.6 mm
05:50 PM 73.5°F23.1°C 71.4°F21.9°C 93% Calm Calm 3.0 mph4.8 kmh 29.82 in1009.8 mb 0.27 in6.9 mm 0.00 in0.0 mm 0.30 in7.6 mm
05:20 PM 71.3°F21.8°C 69.8°F21.0°C 95% Calm Calm 3.0 mph4.8 kmh 29.83 in1010.2 mb 0.30 in7.6 mm 0.46 in11.7 mm 0.30 in7.6 mm
04:50 PM 73.8°F23.2°C 69.0°F20.6°C 85% Calm Calm 3.0 mph4.8 kmh 29.80 in1009.1 mb 0.07 in1.8 mm 0.14 in3.6 mm 0.07 in1.8 mm
04:20 PM 81.9°F27.7°C 72.8°F22.7°C 74% Calm Calm 3.0 mph4.8 kmh 29.78 in1008.5 mb 0.00 in0.0 mm 0.00 in0.0 mm 0.00 in0.0 mm
03:50 PM 82.5°F28.1°C 71.7°F22.1°C 70% Calm Calm 3.0 mph4.8 kmh 29.78 in1008.5 mb 0.00 in0.0 mm 0.00 in0.0 mm 0.00 in0.0 mm
03:20 PM 82.3°F27.9°C 73.6°F23.1°C 75% Calm Calm 3.0 mph4.8 kmh 29.79 in1008.8 mb 0.00 in0.0 mm 0.00 in0.0 mm 0.00 in0.0 mm
02:50 PM 84.7°F29.3°C 73.4°F23.0°C 69% 1.0 mph S1.6 kmh S 3.0 mph4.8 kmh 29.80 in1009.1 mb 0.00 in0.0 mm 0.00 in0.0 mm 0.00 in0.0 mm
02:20 PM 83.8°F28.8°C 73.4°F23.0°C 71% Calm Calm 3.0 mph4.8 kmh 29.81 in1009.5 mb 0.00 in0.0 mm 0.00 in0.0 mm 0.00 in0.0 mm
01:50 PM 83.6°F28.7°C 75.2°F24.0°C 76% 1.0 mph SW1.6 kmh SW 3.0 mph4.8 kmh 29.82 in1009.8 mb 0.00 in0.0 mm 0.00 in0.0 mm 0.00 in0.0 mm
01:20 PM 80.6°F27.0°C 74.2°F23.4°C 81% Calm Calm 3.0 mph4.8 kmh 29.83 in1010.2 mb 0.00 in0.0 mm 0.00 in0.0 mm 0.00 in0.0 mm
12:50 PM 81.5°F27.5°C 74.4°F23.6°C 79% 3.0 mph NNE4.8 kmh NNE 3.0 mph4.8 kmh 29.84 in1010.5 mb 0.00 in0.0 mm 0.00 in0.0 mm 0.00 in0.0 mm
12:20 PM 79.7°F26.5°C 73.7°F23.2°C 82% 2.0 mph NNE3.2 kmh NNE 3.0 mph4.8 kmh 29.84 in1010.5 mb 0.00 in0.0 mm 0.00 in0.0 mm 0.00 in0.0 mm
11:50 AM 78.5°F25.8°C 72.6°F22.6°C 82% Calm Calm 3.0 mph4.8 kmh 29.85 in1010.8 mb 0.00 in0.0 mm 0.00 in0.0 mm 0.00 in0.0 mm
11:20 AM 77.7°F25.4°C 73.2°F22.9°C 86% Calm Calm 3.0 mph4.8 kmh 29.85 in1010.8 mb 0.00 in0.0 mm 0.00 in0.0 mm 0.00 in0.0 mm
10:50 AM 75.3°F24.1°C 72.2°F22.3°C 90% Calm Calm 3.0 mph4.8 kmh 29.85 in1010.8 mb 0.00 in0.0 mm 0.00 in0.0 mm 0.00 in0.0 mm
10:20 AM 74.6°F23.7°C 71.5°F21.9°C 90% Calm Calm 3.0 mph4.8 kmh 29.85 in1010.8 mb 0.00 in0.0 mm 0.00 in0.0 mm 0.00 in0.0 mm
09:50 AM 73.2°F22.9°C 71.1°F21.7°C 93% Calm Calm 3.0 mph4.8 kmh 29.86 in1011.2 mb 0.00 in0.0 mm 0.00 in0.0 mm 0.00 in0.0 mm
09:20 AM 71.8°F22.1°C 70.3°F21.3°C 95% Calm Calm 3.0 mph4.8 kmh 29.86 in1011.2 mb 0.00 in0.0 mm 0.00 in0.0 mm 0.00 in0.0 mm
08:50 AM 70.4°F21.3°C 69.5°F20.8°C 97% Calm Calm 3.0 mph4.8 kmh 29.86 in1011.2 mb 0.00 in0.0 mm 0.00 in0.0 mm 0.00 in0.0 mm
08:20 AM 69.9°F21.1°C 69.0°F20.6°C 97% Calm Calm 3.0 mph4.8 kmh 29.84 in1010.5 mb 0.00 in0.0 mm 0.00 in0.0 mm 0.00 in0.0 mm
07:50 AM 68.9°F20.5°C 68.0°F20.0°C 97% Calm Calm 3.0 mph4.8 kmh 29.84 in1010.5 mb 0.00 in0.0 mm 0.00 in0.0 mm 0.00 in0.0 mm
07:20 AM 68.2°F20.1°C 67.3°F19.6°C 97% Calm Calm 3.0 mph4.8 kmh 29.84 in1010.5 mb 0.00 in0.0 mm 0.00 in0.0 mm 0.00 in0.0 mm
06:50 AM 66.9°F19.4°C 66.0°F18.9°C 97% Calm Calm 3.0 mph4.8 kmh 29.84 in1010.5 mb 0.00 in0.0 mm 0.00 in0.0 mm 0.00 in0.0 mm
06:20 AM 66.6°F19.2°C 65.7°F18.7°C 97% Calm Calm 3.0 mph4.8 kmh 29.83 in1010.2 mb 0.00 in0.0 mm 0.00 in0.0 mm 0.00 in0.0 mm
05:50 AM 66.5°F19.2°C 65.6°F18.7°C 97% Calm Calm 3.0 mph4.8 kmh 29.83 in1010.2 mb 0.00 in0.0 mm 0.00 in0.0 mm 0.00 in0.0 mm
05:20 AM 66.1°F18.9°C 64.9°F18.3°C 96% Calm Calm 3.0 mph4.8 kmh 29.82 in1009.8 mb 0.00 in0.0 mm 0.00 in0.0 mm 0.00 in0.0 mm
04:50 AM 66.2°F19.0°C 65.0°F18.3°C 96% Calm Calm 3.0 mph4.8 kmh 29.82 in1009.8 mb 0.00 in0.0 mm 0.00 in0.0 mm 0.00 in0.0 mm
04:20 AM 66.6°F19.2°C 65.4°F18.6°C 96% Calm Calm 3.0 mph4.8 kmh 29.81 in1009.5 mb 0.00 in0.0 mm 0.00 in0.0 mm 0.00 in0.0 mm
03:50 AM 67.0°F19.4°C 65.8°F18.8°C 96% Calm Calm 3.0 mph4.8 kmh 29.83 in1010.2 mb 0.00 in0.0 mm 0.00 in0.0 mm 0.00 in0.0 mm
03:20 AM 67.5°F19.7°C 66.3°F19.1°C 96% Calm Calm 3.0 mph4.8 kmh 29.83 in1010.2 mb 0.00 in0.0 mm 0.00 in0.0 mm 0.00 in0.0 mm
02:50 AM 67.1°F19.5°C 65.9°F18.8°C 96% Calm Calm 3.0 mph4.8 kmh 29.83 in1010.2 mb 0.00 in0.0 mm 0.00 in0.0 mm 0.00 in0.0 mm
02:20 AM 66.8°F19.3°C 65.3°F18.5°C 95% Calm Calm 3.0 mph4.8 kmh 29.83 in1010.2 mb 0.00 in0.0 mm 0.00 in0.0 mm 0.00 in0.0 mm
01:50 AM 67.4°F19.7°C 65.6°F18.7°C 94% Calm Calm 3.0 mph4.8 kmh 29.82 in1009.8 mb 0.00 in0.0 mm 0.00 in0.0 mm 0.00 in0.0 mm
01:20 AM 67.8°F19.9°C 66.0°F18.9°C 94% 1.0 mph SE1.6 kmh SE 3.0 mph4.8 kmh 29.82 in1009.8 mb 0.00 in0.0 mm 0.00 in0.0 mm 0.00 in0.0 mm
12:50 AM 68.3°F20.2°C 66.5°F19.2°C 94% Calm Calm 3.0 mph4.8 kmh 29.83 in1010.2 mb 0.00 in0.0 mm 0.00 in0.0 mm 0.00 in0.0 mm
12:20 AM 68.4°F20.2°C 66.9°F19.4°C 95% Calm Calm 3.0 mph4.8 kmh 29.85 in1010.8 mb 0.00 in0.0 mm 0.00 in0.0 mm 0.00 in0.0 mm